Time;durP1;ratioP1;P1;durP2;ratioP2;P2;SDS_P1;SDS_P2;PMS_P1;PMS_P2;Temp;Humidity;BMP_temperature;BMP_pressure;BME280_temperature;BME280_humidity;BME280_pressure;Samples;Min_cycle;Max_cycle;Signal;HPM_P1;HPM_P2
2023/05/29 00:01:25;;;;;;;4.65;3.42;;;;;;;15.09;59.88;93660.31;4946991;28;20038;-73
2023/05/29 00:03:52;;;;;;;6.00;3.42;;;;;;;15.14;59.97;93665.41;4949767;28;20042;-74
2023/05/29 00:06:19;;;;;;;4.40;3.35;;;;;;;15.04;59.94;93655.22;4942898;28;20377;-73
2023/05/29 00:08:44;;;;;;;6.25;3.50;;;;;;;15.11;59.75;93655.38;4949310;28;20035;-73
2023/05/29 00:11:10;;;;;;;6.35;3.15;;;;;;;14.99;59.99;93648.22;4947565;28;20077;-72
2023/05/29 00:13:35;;;;;;;4.95;3.35;;;;;;;14.97;60.04;93652.34;4947114;28;20051;-73
2023/05/29 00:16:01;;;;;;;4.78;3.28;;;;;;;15.10;60.13;93675.28;4948510;28;20600;-74
2023/05/29 00:18:27;;;;;;;4.40;3.75;;;;;;;15.11;60.41;93668.78;4950762;28;20038;-74
2023/05/29 00:20:53;;;;;;;3.78;3.38;;;;;;;15.07;60.29;93657.19;4945489;28;20721;-72
2023/05/29 00:23:19;;;;;;;4.18;3.75;;;;;;;15.10;60.16;93663.78;4948079;28;20330;-72
2023/05/29 00:25:44;;;;;;;6.45;3.78;;;;;;;15.06;60.73;93681.66;4947474;28;20039;-74
2023/05/29 00:28:11;;;;;;;4.55;3.58;;;;;;;15.00;61.26;93670.41;4956422;28;20022;-73
2023/05/29 00:30:37;;;;;;;3.80;3.20;;;;;;;14.89;61.31;93654.06;4945539;28;20027;-74
2023/05/29 00:33:02;;;;;;;7.15;4.03;;;;;;;14.99;61.16;93668.84;4947142;28;20363;-73
2023/05/29 00:35:28;;;;;;;9.55;4.57;;;;;;;15.07;61.40;93678.63;4947675;28;20093;-73
2023/05/29 00:37:53;;;;;;;5.95;4.10;;;;;;;15.00;61.29;93657.03;4948327;28;20045;-73
2023/05/29 00:40:19;;;;;;;5.05;4.00;;;;;;;15.06;60.96;93658.31;4944827;28;20142;-73
2023/05/29 00:42:44;;;;;;;3.75;3.38;;;;;;;15.19;61.00;93673.19;4946690;28;20039;-73
2023/05/29 00:45:10;;;;;;;7.70;3.72;;;;;;;14.94;60.89;93647.69;4949730;28;20509;-72
2023/05/29 00:47:36;;;;;;;7.75;3.47;;;;;;;15.15;60.88;93677.69;4945505;28;20122;-73
2023/05/29 00:50:03;;;;;;;6.78;3.70;;;;;;;15.07;61.15;93677.84;4948739;28;20488;-73
2023/05/29 00:52:29;;;;;;;4.57;3.67;;;;;;;15.01;61.48;93666.59;4945854;28;20027;-72
2023/05/29 00:54:55;;;;;;;6.90;3.50;;;;;;;15.04;61.50;93657.91;4948625;28;20041;-74
2023/05/29 00:57:22;;;;;;;18.65;3.33;;;;;;;15.07;61.04;93659.88;4946118;28;20043;-73
2023/05/29 00:59:48;;;;;;;7.32;4.13;;;;;;;15.02;60.98;93657.44;4948466;28;20120;-74
2023/05/29 01:02:16;;;;;;;6.35;3.05;;;;;;;14.92;61.05;93649.91;4948194;28;20110;-73
2023/05/29 01:04:45;;;;;;;6.25;4.10;;;;;;;14.96;60.88;93659.59;4953045;28;20030;-73
2023/05/29 01:07:10;;;;;;;4.22;3.50;;;;;;;14.89;61.06;93643.38;4949854;28;20027;-73
2023/05/29 01:09:36;;;;;;;6.00;3.80;;;;;;;14.94;60.84;93651.16;4946005;28;20155;-73
2023/05/29 01:12:02;;;;;;;6.68;4.63;;;;;;;14.91;61.28;93651.06;4947811;28;20040;-74
2023/05/29 01:14:40;;;;;;;4.32;3.85;;;;;;;14.86;61.22;93649.38;4948213;28;20031;-73
2023/05/29 01:17:20;;;;;;;6.05;3.65;;;;;;;14.90;61.10;93654.84;4947482;28;20043;-73
2023/05/29 01:19:55;;;;;;;5.55;4.00;;;;;;;14.92;61.02;93663.31;4947172;28;20039;-74
2023/05/29 01:22:43;;;;;;;13.65;4.05;;;;;;;14.89;61.14;93662.09;4947813;28;20041;-73
2023/05/29 01:25:21;;;;;;;5.53;4.35;;;;;;;14.78;61.01;93652.22;4947218;28;20039;-73
2023/05/29 01:27:47;;;;;;;5.97;3.60;;;;;;;14.76;60.94;93649.91;4949721;28;20114;-74
2023/05/29 01:30:14;;;;;;;5.57;4.97;;;;;;;14.78;61.28;93660.25;4941630;28;20036;-73
2023/05/29 01:32:41;;;;;;;5.95;3.80;;;;;;;14.80;61.17;93655.34;4937369;28;20035;-73
2023/05/29 01:35:08;;;;;;;7.20;4.18;;;;;;;14.76;61.23;93651.81;4944817;28;20059;-73
2023/05/29 01:37:34;;;;;;;6.35;3.63;;;;;;;14.91;61.32;93659.84;4947585;28;20023;-73
2023/05/29 01:40:00;;;;;;;5.15;4.63;;;;;;;14.80;61.49;93650.00;4959919;28;20413;-73
2023/05/29 01:42:29;;;;;;;4.70;3.60;;;;;;;14.78;62.05;93658.38;4946796;28;20444;-73
2023/05/29 01:44:57;;;;;;;6.75;4.72;;;;;;;14.81;61.94;93656.91;4947379;28;20104;-73
2023/05/29 01:47:23;;;;;;;5.55;3.10;;;;;;;14.89;62.11;93666.69;4946479;28;20078;-74
2023/05/29 01:49:51;;;;;;;6.15;3.78;;;;;;;14.89;62.30;93669.34;4942741;28;20144;-73
2023/05/29 01:52:16;;;;;;;7.10;4.25;;;;;;;14.94;62.70;93666.44;4947853;28;20769;-73
2023/05/29 01:54:42;;;;;;;9.25;4.10;;;;;;;14.90;62.87;93663.66;4943332;28;20230;-74
2023/05/29 01:57:07;;;;;;;6.07;4.70;;;;;;;14.90;62.80;93660.22;4948482;28;20034;-73
2023/05/29 01:59:35;;;;;;;6.57;4.72;;;;;;;14.96;62.93;93664.19;4946710;28;20045;-74
2023/05/29 02:02:10;;;;;;;7.68;4.70;;;;;;;14.85;62.95;93653.22;4946493;28;20763;-73
2023/05/29 02:04:35;;;;;;;4.53;3.53;;;;;;;14.83;63.17;93657.34;4947555;28;20597;-73
2023/05/29 02:07:01;;;;;;;7.00;4.00;;;;;;;14.81;63.26;93651.56;4946755;28;20031;-73
2023/05/29 02:09:26;;;;;;;5.45;3.65;;;;;;;14.83;63.17;93660.00;4937561;28;20049;-74
2023/05/29 02:11:52;;;;;;;6.32;5.20;;;;;;;14.68;63.02;93626.75;4948543;28;20050;-74
2023/05/29 02:14:18;;;;;;;6.63;4.97;;;;;;;14.88;62.87;93657.09;4945854;28;20043;-73
2023/05/29 02:16:43;;;;;;;5.88;4.50;;;;;;;14.82;62.60;93645.84;4947940;28;20066;-74
2023/05/29 02:19:09;;;;;;;6.32;4.85;;;;;;;14.82;61.85;93653.09;4943530;28;20478;-73
2023/05/29 02:21:38;;;;;;;6.13;4.05;;;;;;;14.68;62.37;93642.03;4947075;28;20145;-73
2023/05/29 02:24:04;;;;;;;8.02;4.78;;;;;;;14.75;62.36;93653.72;4948207;28;20402;-73
2023/05/29 02:26:31;;;;;;;6.45;5.43;;;;;;;14.81;63.23;93648.88;4945943;28;20039;-73
2023/05/29 02:28:56;;;;;;;7.30;5.43;;;;;;;14.68;62.97;93632.09;4947320;28;20113;-73
2023/05/29 02:31:22;;;;;;;5.85;5.00;;;;;;;14.77;63.20;93648.78;4945579;28;20051;-74
2023/05/29 02:33:48;;;;;;;5.38;4.57;;;;;;;14.76;63.44;93649.13;4947342;28;20039;-73
2023/05/29 02:36:13;;;;;;;9.48;4.47;;;;;;;14.80;63.38;93655.34;4945740;28;20117;-73
2023/05/29 02:38:39;;;;;;;6.47;3.78;;;;;;;14.65;63.66;93640.03;4944717;28;20038;-73
2023/05/29 02:41:05;;;;;;;6.68;4.38;;;;;;;14.79;63.05;93653.78;4946350;28;20145;-74
2023/05/29 02:43:31;;;;;;;5.45;4.32;;;;;;;14.68;63.34;93647.38;4946145;28;20034;-74
2023/05/29 02:45:56;;;;;;;7.30;4.72;;;;;;;14.58;63.21;93638.72;4945668;28;20031;-74
2023/05/29 02:48:22;;;;;;;7.18;4.22;;;;;;;14.60;63.24;93639.16;4949080;28;20129;-73
2023/05/29 02:50:47;;;;;;;6.00;3.88;;;;;;;14.69;63.27;93647.03;4944590;28;20541;-73
2023/05/29 02:53:13;;;;;;;4.80;3.97;;;;;;;14.57;63.47;93631.81;4946699;28;20035;-73
2023/05/29 02:55:38;;;;;;;6.25;4.57;;;;;;;14.58;63.21;93644.06;4946140;28;20464;-73
2023/05/29 02:58:04;;;;;;;8.13;3.92;;;;;;;14.55;63.33;93639.41;4945527;28;20948;-73
2023/05/29 03:00:29;;;;;;;6.85;4.45;;;;;;;14.57;63.23;93647.88;4943213;28;20031;-74
2023/05/29 03:02:55;;;;;;;4.97;4.47;;;;;;;14.54;63.45;93647.78;4946544;28;20046;-73
2023/05/29 03:05:20;;;;;;;5.82;3.92;;;;;;;14.48;63.59;93644.53;4945853;28;20038;-74
2023/05/29 03:07:45;;;;;;;5.18;3.53;;;;;;;14.67;63.46;93662.66;4943302;28;20035;-74
2023/05/29 03:10:11;;;;;;;5.35;3.72;;;;;;;14.63;63.42;93661.00;4948670;28;20023;-73
2023/05/29 03:12:37;;;;;;;4.80;3.70;;;;;;;14.43;63.96;93626.03;4945560;28;20538;-74
2023/05/29 03:15:05;;;;;;;4.10;3.70;;;;;;;14.70;63.78;93658.53;4948243;28;20525;-74
2023/05/29 03:17:30;;;;;;;4.85;3.70;;;;;;;14.64;63.82;93646.50;4945010;28;20165;-74
2023/05/29 03:19:55;;;;;;;4.68;3.50;;;;;;;14.73;63.90;93658.63;4946600;28;20035;-73
2023/05/29 03:22:21;;;;;;;6.75;5.15;;;;;;;14.82;63.95;93666.47;4945737;28;20034;-74
2023/05/29 03:24:46;;;;;;;4.10;3.67;;;;;;;14.73;64.04;93649.81;4950166;28;20401;-75
2023/05/29 03:27:11;;;;;;;7.68;4.20;;;;;;;14.72;64.34;93642.88;4948451;28;20038;-74
2023/05/29 03:29:37;;;;;;;4.68;3.80;;;;;;;14.82;64.29;93663.81;4951874;28;20055;-73
2023/05/29 03:32:02;;;;;;;6.00;4.30;;;;;;;14.78;64.72;93665.63;4953213;28;20561;-74
2023/05/29 03:34:28;;;;;;;6.50;4.25;;;;;;;14.78;64.70;93662.94;4947692;28;20023;-74
2023/05/29 03:36:53;;;;;;;6.43;4.72;;;;;;;14.82;64.93;93663.81;4948454;28;20035;-74
2023/05/29 03:39:20;;;;;;;8.55;5.13;;;;;;;14.88;65.15;93673.16;4949714;28;20130;-74
2023/05/29 03:41:45;;;;;;;8.23;4.20;;;;;;;14.86;65.03;93670.06;4948029;28;20085;-71
2023/05/29 03:44:11;;;;;;;5.00;3.95;;;;;;;15.00;64.89;93681.13;4947412;28;20494;-74
2023/05/29 03:46:36;;;;;;;7.28;4.70;;;;;;;14.98;65.02;93678.00;4949491;28;20031;-74
2023/05/29 03:49:01;;;;;;;5.55;4.05;;;;;;;14.95;65.64;93670.69;4947786;28;20040;-74
2023/05/29 03:51:27;;;;;;;5.28;3.75;;;;;;;15.06;66.02;93682.41;4957470;28;20959;-73
2023/05/29 03:53:52;;;;;;;4.50;3.65;;;;;;;15.14;65.95;93683.38;4942328;28;20075;-74
2023/05/29 03:56:18;;;;;;;7.70;4.30;;;;;;;15.25;65.71;93690.59;4936617;28;20042;-72
2023/05/29 03:58:43;;;;;;;6.07;3.58;;;;;;;15.29;65.66;93685.31;4946658;28;20701;-73
2023/05/29 04:01:09;;;;;;;6.25;3.85;;;;;;;15.40;65.59;93705.88;4949859;28;20497;-73
2023/05/29 04:03:35;;;;;;;5.00;3.95;;;;;;;15.48;65.11;93703.41;4948716;28;20035;-72
2023/05/29 04:06:00;;;;;;;8.88;3.75;;;;;;;15.43;65.20;93694.47;4949090;28;20051;-74
2023/05/29 04:08:26;;;;;;;5.80;3.85;;;;;;;15.51;65.15;93689.31;4955988;28;20465;-74
2023/05/29 04:10:53;;;;;;;4.10;3.28;;;;;;;15.59;64.74;93707.91;4948681;28;20505;-73
2023/05/29 04:13:19;;;;;;;5.95;4.28;;;;;;;15.54;64.50;93693.97;4949360;28;20502;-74
2023/05/29 04:15:45;;;;;;;5.72;3.92;;;;;;;15.68;64.04;93711.19;4944403;28;20162;-74
2023/05/29 04:18:10;;;;;;;5.45;3.88;;;;;;;15.75;63.96;93705.97;4947849;28;20046;-73
2023/05/29 04:20:35;;;;;;;5.05;4.43;;;;;;;15.78;63.44;93701.84;4945818;28;20147;-74
2023/05/29 04:23:01;;;;;;;6.95;3.67;;;;;;;15.74;63.51;93688.31;4949455;28;20039;-73
2023/05/29 04:25:26;;;;;;;4.38;3.67;;;;;;;15.76;63.49;93696.03;4948121;28;20038;-73
2023/05/29 04:27:52;;;;;;;4.68;4.00;;;;;;;15.66;63.70;93696.56;4950531;28;20117;-72
2023/05/29 04:30:17;;;;;;;4.57;3.85;;;;;;;15.38;64.77;93692.06;4946663;28;20433;-74
2023/05/29 04:32:43;;;;;;;9.15;4.18;;;;;;;15.58;64.64;93705.56;4955090;28;20035;-73
2023/05/29 04:35:09;;;;;;;9.35;4.13;;;;;;;15.54;64.88;93704.72;4946365;28;20066;-73
2023/05/29 04:37:38;;;;;;;8.93;4.68;;;;;;;15.44;65.52;93709.47;4949220;28;20028;-73
2023/05/29 04:40:11;;;;;;;6.60;4.50;;;;;;;14.97;67.30;93713.94;4948003;28;20029;-74
2023/05/29 04:42:37;;;;;;;13.23;5.25;;;;;;;15.22;66.86;93701.97;4947293;28;20049;-73
2023/05/29 04:45:06;;;;;;;11.90;5.55;;;;;;;15.25;66.64;93717.38;4954550;28;20126;-73
2023/05/29 04:47:36;;;;;;;13.65;5.88;;;;;;;15.30;66.51;93722.44;4947384;28;20744;-73
2023/05/29 04:50:02;;;;;;;9.98;6.13;;;;;;;15.27;66.67;93722.38;4947674;28;20151;-72
2023/05/29 04:52:27;;;;;;;13.63;6.50;;;;;;;15.41;66.46;93717.38;4949735;28;20093;-74
2023/05/29 04:54:54;;;;;;;12.88;5.88;;;;;;;15.49;66.17;93713.00;4949017;28;20023;-74
2023/05/29 04:57:20;;;;;;;11.43;6.75;;;;;;;15.50;66.12;93720.69;4944822;28;20050;-73
2023/05/29 04:59:45;;;;;;;11.77;5.60;;;;;;;15.58;65.91;93710.94;4943342;28;20027;-74
2023/05/29 05:02:10;;;;;;;8.52;6.20;;;;;;;15.63;66.00;93724.06;4935157;28;20034;-74
2023/05/29 05:04:36;;;;;;;8.43;5.38;;;;;;;15.04;66.47;93698.06;4944908;28;20035;-74
2023/05/29 05:07:03;;;;;;;10.35;5.93;;;;;;;15.21;67.02;93735.22;4945838;28;20379;-74
2023/05/29 05:09:28;;;;;;;8.82;4.75;;;;;;;15.26;66.48;93739.56;4947569;28;20051;-73
2023/05/29 05:11:54;;;;;;;8.05;5.57;;;;;;;15.11;68.77;93745.69;4947176;28;20042;-74
2023/05/29 05:14:20;;;;;;;10.93;6.50;;;;;;;15.17;69.45;93734.38;4940108;28;20051;-74
2023/05/29 05:16:45;;;;;;;16.30;7.22;;;;;;;15.58;66.72;93748.44;4932820;28;20722;-75
2023/05/29 05:19:11;;;;;;;17.98;7.28;;;;;;;15.51;67.31;93732.97;4945693;28;20093;-73
2023/05/29 05:21:36;;;;;;;10.80;6.75;;;;;;;15.78;66.47;93747.41;4949312;28;20035;-72
2023/05/29 05:24:02;;;;;;;17.50;7.07;;;;;;;16.08;64.76;93756.56;4945067;28;20085;-73
2023/05/29 05:26:27;;;;;;;14.07;6.60;;;;;;;15.15;66.99;93639.41;4945527;28;20077;-73
2023/05/29 05:28:52;;;;;;;8.98;6.47;;;;;;;15.97;67.27;93744.03;4963391;28;20035;-72
2023/05/29 05:31:18;;;;;;;12.90;5.97;;;;;;;16.24;64.61;93754.63;4944255;28;20388;-74
2023/05/29 05:33:43;;;;;;;10.88;7.20;;;;;;;16.26;64.47;93749.69;4944537;28;20039;-73
2023/05/29 05:36:10;;;;;;;13.23;7.03;;;;;;;15.95;63.82;93748.94;4944994;28;20399;-72
2023/05/29 05:38:35;;;;;;;9.20;6.20;;;;;;;15.75;65.25;93748.09;4947411;28;20047;-72
2023/05/29 05:41:01;;;;;;;9.23;5.75;;;;;;;15.88;64.86;93736.16;4946457;28;20078;-74
2023/05/29 05:43:27;;;;;;;12.00;5.97;;;;;;;15.81;65.31;93727.94;4959854;28;20418;-74
2023/05/29 05:45:52;;;;;;;6.03;5.38;;;;;;;15.80;64.75;93756.66;4948911;28;20461;-73
2023/05/29 05:48:18;;;;;;;12.95;6.05;;;;;;;15.50;66.56;93757.44;4948319;28;20109;-74
2023/05/29 05:50:43;;;;;;;8.20;5.63;;;;;;;15.75;66.26;93751.56;4943865;28;20050;-72
2023/05/29 05:53:08;;;;;;;8.20;5.90;;;;;;;15.58;67.22;93748.44;4938176;28;20070;-73
2023/05/29 05:55:34;;;;;;;13.35;5.70;;;;;;;15.83;65.05;93757.88;4945609;28;20037;-73
2023/05/29 05:57:59;;;;;;;10.68;5.50;;;;;;;15.77;66.27;93764.63;4947223;28;20073;-73
2023/05/29 06:00:25;;;;;;;13.68;6.30;;;;;;;15.49;66.96;93754.00;4947248;28;20046;-73
2023/05/29 06:02:51;;;;;;;8.10;5.45;;;;;;;15.46;66.02;93747.41;4948207;28;20073;-72
2023/05/29 06:05:16;;;;;;;8.35;6.78;;;;;;;15.86;65.50;93754.50;4949707;28;20039;-74
2023/05/29 06:07:42;;;;;;;9.98;5.60;;;;;;;16.03;65.97;93748.00;4944298;28;20034;-73
2023/05/29 06:10:07;;;;;;;7.47;5.25;;;;;;;16.05;65.78;93749.19;4948667;28;20073;-73
2023/05/29 06:12:34;;;;;;;7.13;5.22;;;;;;;15.64;66.29;93758.59;4944950;28;20047;-74
2023/05/29 06:14:59;;;;;;;8.85;5.10;;;;;;;15.90;66.03;93755.34;4946647;28;20034;-73
2023/05/29 06:17:25;;;;;;;8.82;4.95;;;;;;;15.82;64.63;93732.19;4943748;28;20038;-73
2023/05/29 06:19:50;;;;;;;7.18;4.93;;;;;;;16.43;64.03;93753.91;4944480;28;20081;-75
2023/05/29 06:22:16;;;;;;;17.10;6.78;;;;;;;16.30;62.12;93753.25;4946359;28;20051;-73
2023/05/29 06:24:41;;;;;;;7.75;5.35;;;;;;;16.46;62.30;93768.53;4946132;28;20035;-72
2023/05/29 06:27:07;;;;;;;7.68;4.13;;;;;;;16.60;61.37;93768.84;4946533;28;20119;-73
2023/05/29 06:29:32;;;;;;;6.28;4.20;;;;;;;16.88;61.92;93766.75;4945795;28;20113;-73
2023/05/29 06:31:58;;;;;;;10.90;5.50;;;;;;;17.00;61.84;93774.66;4944674;28;20051;-74
2023/05/29 06:34:23;;;;;;;7.18;4.53;;;;;;;16.42;62.25;93770.38;4946347;28;20027;-73
2023/05/29 06:36:49;;;;;;;7.53;4.55;;;;;;;16.08;63.42;93767.28;4949717;28;21137;-72
2023/05/29 06:39:15;;;;;;;8.27;5.18;;;;;;;16.33;63.15;93754.44;4944834;28;20046;-73
2023/05/29 06:41:41;;;;;;;7.38;5.18;;;;;;;16.42;62.07;93770.38;4946676;28;20054;-73
2023/05/29 06:44:06;;;;;;;7.13;3.95;;;;;;;16.60;61.63;93760.78;4945291;28;20046;-74
2023/05/29 06:46:32;;;;;;;5.90;3.35;;;;;;;16.94;60.16;93765.34;4946294;28;20085;-74
2023/05/29 06:48:57;;;;;;;10.85;4.68;;;;;;;16.53;62.36;93766.00;4946922;28;20031;-73
2023/05/29 06:51:23;;;;;;;8.00;5.32;;;;;;;16.14;63.94;93765.88;4946404;28;20039;-74
2023/05/29 06:53:48;;;;;;;10.15;4.30;;;;;;;16.33;63.52;93768.66;4934994;28;20051;-72
2023/05/29 06:56:14;;;;;;;7.50;4.32;;;;;;;16.22;63.25;93756.88;4932116;28;20054;-73
2023/05/29 06:58:39;;;;;;;7.47;4.82;;;;;;;16.25;63.56;93760.75;4923598;28;20074;-72
2023/05/29 07:01:05;;;;;;;6.20;3.30;;;;;;;16.10;62.95;93764.25;4940632;28;20441;-74
2023/05/29 07:03:31;;;;;;;2.45;1.73;;;;;;;16.12;62.53;93772.75;4941475;28;20089;-73
2023/05/29 07:05:56;;;;;;;2.83;1.98;;;;;;;16.53;60.69;93766.00;4939690;28;20089;-73
2023/05/29 07:08:23;;;;;;;3.38;1.85;;;;;;;16.86;59.81;93778.97;4940623;28;20126;-73
2023/05/29 07:10:48;;;;;;;4.63;2.58;;;;;;;16.47;60.93;93770.88;4939915;28;20057;-73
2023/05/29 07:13:16;;;;;;;4.43;2.20;;;;;;;16.75;60.37;93776.06;4947528;28;20059;-73
2023/05/29 07:15:42;;;;;;;3.20;2.65;;;;;;;16.96;59.62;93773.03;4940960;28;20035;-74
2023/05/29 07:18:07;;;;;;;6.18;3.78;;;;;;;17.21;58.73;93777.00;4940813;28;20050;-72
2023/05/29 07:20:33;;;;;;;4.30;3.10;;;;;;;17.08;59.10;93781.72;4937950;28;20587;-73
2023/05/29 07:22:58;;;;;;;6.75;3.17;;;;;;;16.97;60.44;93783.41;4941857;28;20081;-72
2023/05/29 07:25:24;;;;;;;6.15;3.85;;;;;;;16.91;59.71;93781.38;4941871;28;20932;-73
2023/05/29 07:27:49;;;;;;;7.30;3.70;;;;;;;16.68;60.18;93765.16;4946145;28;20039;-74
2023/05/29 07:30:15;;;;;;;5.78;3.22;;;;;;;16.38;61.72;93774.91;4948417;28;20046;-74
2023/05/29 07:32:41;;;;;;;7.25;2.58;;;;;;;16.53;61.27;93771.38;4946785;28;20039;-73
2023/05/29 07:35:06;;;;;;;4.35;2.80;;;;;;;17.13;59.12;93761.84;4943098;28;20047;-74
2023/05/29 07:37:32;;;;;;;6.75;3.85;;;;;;;17.16;59.27;93772.69;4948424;28;20848;-74
2023/05/29 07:39:57;;;;;;;6.30;3.47;;;;;;;17.37;57.84;93764.25;4938963;28;20038;-73
2023/05/29 07:42:23;;;;;;;5.55;3.42;;;;;;;17.53;58.05;93764.16;4940116;28;20045;-73
2023/05/29 07:44:48;;;;;;;5.35;2.88;;;;;;;17.38;57.58;93770.41;4940865;28;20074;-74
2023/05/29 07:47:14;;;;;;;4.72;3.00;;;;;;;17.56;58.27;93769.59;4941059;28;20217;-73
2023/05/29 07:49:40;;;;;;;6.00;3.65;;;;;;;17.26;58.76;93773.28;4942316;28;20123;-74
2023/05/29 07:52:05;;;;;;;6.75;3.75;;;;;;;17.20;58.59;93763.94;4940594;28;20246;-73
2023/05/29 07:54:32;;;;;;;8.10;3.25;;;;;;;17.45;58.44;93768.63;4941582;28;20045;-74
2023/05/29 07:56:59;;;;;;;7.32;2.70;;;;;;;17.53;58.19;93761.47;4940255;28;20134;-73
2023/05/29 07:59:26;;;;;;;3.80;2.92;;;;;;;17.41;57.32;93770.47;4939832;28;20046;-72
2023/05/29 08:01:51;;;;;;;5.03;3.58;;;;;;;17.25;57.75;93752.91;4941848;28;20557;-74
2023/05/29 08:04:17;;;;;;;5.90;3.55;;;;;;;17.10;59.26;93757.97;4945697;28;20038;-72
2023/05/29 08:06:43;;;;;;;10.52;3.88;;;;;;;17.14;58.22;93764.22;4941373;28;20460;-72
2023/05/29 08:09:09;;;;;;;5.45;3.53;;;;;;;17.36;59.43;93765.38;4940390;28;20357;-73
2023/05/29 08:11:36;;;;;;;5.60;3.42;;;;;;;17.27;58.83;93758.69;4940031;28;20365;-74
2023/05/29 08:14:02;;;;;;;6.82;3.10;;;;;;;17.24;57.73;93770.94;4932537;28;20075;-74
2023/05/29 08:16:27;;;;;;;3.63;2.97;;;;;;;17.56;57.41;93768.81;4921617;28;20138;-74
2023/05/29 08:18:53;;;;;;;6.40;2.88;;;;;;;17.82;55.94;93766.19;4939086;28;20779;-74
2023/05/29 08:21:18;;;;;;;3.58;2.67;;;;;;;17.99;54.89;93760.34;4942002;28;20055;-72
2023/05/29 08:23:44;;;;;;;8.00;3.65;;;;;;;17.32;55.89;93774.53;4938097;28;20039;-72
2023/05/29 08:26:10;;;;;;;4.82;2.78;;;;;;;17.62;56.69;93772.78;4939119;28;20109;-74
2023/05/29 08:28:35;;;;;;;7.40;2.83;;;;;;;17.57;56.34;93783.81;4954524;28;20461;-74
2023/05/29 08:31:01;;;;;;;4.15;3.17;;;;;;;17.31;57.63;93779.13;4939669;28;20057;-74
2023/05/29 08:33:26;;;;;;;3.53;2.70;;;;;;;17.17;58.54;93770.78;4940595;28;20563;-73
2023/05/29 08:35:51;;;;;;;5.85;3.10;;;;;;;17.41;57.11;93773.16;4938415;28;20030;-73
2023/05/29 08:38:17;;;;;;;5.80;2.70;;;;;;;17.29;57.22;93783.31;4940777;28;20067;-73
2023/05/29 08:40:42;;;;;;;6.10;2.80;;;;;;;17.34;58.07;93783.00;4938754;28;20918;-73
2023/05/29 08:43:12;;;;;;;5.10;2.53;;;;;;;17.75;57.66;93782.22;4938618;28;20038;-74
2023/05/29 08:45:45;;;;;;;3.10;2.30;;;;;;;17.54;54.88;93754.97;4952508;28;20497;-74
2023/05/29 08:48:11;;;;;;;2.60;2.40;;;;;;;17.79;55.08;93766.94;4935729;28;20906;-72
2023/05/29 08:50:46;;;;;;;4.20;2.60;;;;;;;17.96;54.88;93755.69;4928974;28;20883;-73
2023/05/29 08:53:16;;;;;;;4.63;3.35;;;;;;;18.17;56.04;93760.63;4941896;28;20046;-73
2023/05/29 08:55:41;;;;;;;4.70;2.88;;;;;;;17.99;55.30;93748.81;4947389;28;20019;-73
2023/05/29 08:58:08;;;;;;;4.03;2.42;;;;;;;18.02;54.77;93754.25;4937138;28;20564;-73
2023/05/29 09:00:34;;;;;;;6.35;2.53;;;;;;;18.32;54.00;93756.25;4939591;28;20030;-75
2023/05/29 09:02:59;;;;;;;6.15;2.60;;;;;;;18.52;52.59;93754.22;4941732;28;20298;-75
2023/05/29 09:05:29;;;;;;;4.85;2.47;;;;;;;18.56;52.84;93739.66;4939209;28;20549;-73
2023/05/29 09:07:55;;;;;;;3.17;2.67;;;;;;;18.66;51.47;93743.63;4941026;28;20706;-72
2023/05/29 09:10:22;;;;;;;3.00;2.38;;;;;;;18.71;51.25;93754.88;4939262;28;20051;-73
2023/05/29 09:12:50;;;;;;;4.10;2.72;;;;;;;18.86;50.95;93720.81;4933044;28;20738;-74
2023/05/29 09:15:19;;;;;;;3.83;2.65;;;;;;;19.11;50.24;93753.44;4935795;28;20055;-73
2023/05/29 09:17:52;;;;;;;6.18;3.03;;;;;;;19.22;49.62;93743.53;4938303;28;20623;-74
2023/05/29 09:20:19;;;;;;;4.78;2.50;;;;;;;19.38;49.72;93741.41;4944611;28;20162;-74
2023/05/29 09:23:08;;;;;;;5.72;2.65;;;;;;;19.28;50.54;93736.66;4938432;28;20035;-73
2023/05/29 09:25:39;;;;;;;3.92;2.60;;;;;;;19.30;51.67;93731.69;4936833;28;20110;-73
2023/05/29 09:28:08;;;;;;;3.05;2.75;;;;;;;19.38;50.90;93730.63;4939246;28;20171;-73
2023/05/29 09:30:36;;;;;;;8.05;3.28;;;;;;;19.35;48.12;93730.59;4950897;28;20632;-74
2023/05/29 09:33:03;;;;;;;5.80;2.40;;;;;;;19.20;49.18;93721.56;4939036;28;20039;-73
2023/05/29 09:35:41;;;;;;;5.68;2.45;;;;;;;19.33;50.01;93717.47;4936776;28;20142;-73
2023/05/29 09:38:08;;;;;;;6.18;3.88;;;;;;;19.09;48.60;93707.19;4938982;28;20101;-73
2023/05/29 09:40:36;;;;;;;4.80;2.55;;;;;;;19.07;46.75;93706.78;4944065;28;20488;-74
2023/05/29 09:43:07;;;;;;;5.03;2.95;;;;;;;19.00;48.72;93715.59;4936540;28;20389;-74
2023/05/29 09:45:33;;;;;;;2.85;2.65;;;;;;;19.27;49.58;93714.31;4937898;28;20044;-73
2023/05/29 09:47:58;;;;;;;4.60;2.85;;;;;;;19.30;48.52;93688.56;4939657;28;20043;-73
2023/05/29 09:50:27;;;;;;;3.03;2.70;;;;;;;19.49;48.70;93699.16;4937418;28;20070;-72
2023/05/29 09:52:53;;;;;;;6.88;3.15;;;;;;;19.31;47.91;93695.50;4939629;28;20799;-73
2023/05/29 09:55:23;;;;;;;4.00;3.00;;;;;;;19.46;47.18;93689.09;4937180;28;20027;-74
2023/05/29 09:57:49;;;;;;;4.10;2.90;;;;;;;19.36;48.31;93683.59;4937091;28;20034;-74
2023/05/29 10:00:17;;;;;;;5.25;3.17;;;;;;;19.47;47.17;93690.66;4936344;28;20058;-73
2023/05/29 10:02:42;;;;;;;3.70;3.40;;;;;;;19.19;47.84;93687.66;4937478;28;20042;-72
2023/05/29 10:05:09;;;;;;;3.47;2.85;;;;;;;18.26;49.22;93687.69;4938703;28;20281;-74
2023/05/29 10:07:36;;;;;;;5.78;2.72;;;;;;;18.17;50.17;93703.34;4934377;28;20027;-72
2023/05/29 10:10:05;;;;;;;4.63;2.70;;;;;;;18.55;48.58;93700.38;4939205;28;20441;-73
2023/05/29 10:12:34;;;;;;;7.90;2.88;;;;;;;18.77;48.77;93712.25;4932480;28;20058;-72
2023/05/29 10:15:01;;;;;;;4.85;2.50;;;;;;;18.93;48.37;93709.31;4937175;28;20140;-73
2023/05/29 10:17:32;;;;;;;3.50;2.95;;;;;;;18.95;50.31;93707.84;4944449;28;20610;-74
2023/05/29 10:20:00;;;;;;;5.25;2.42;;;;;;;19.11;48.99;93688.75;4934920;28;20677;-73
2023/05/29 10:22:27;;;;;;;3.15;2.67;;;;;;;19.39;49.70;93688.25;4942397;28;20505;-73
2023/05/29 10:24:54;;;;;;;3.25;2.65;;;;;;;19.50;48.73;93673.75;4944975;28;20109;-74
2023/05/29 10:27:20;;;;;;;13.98;3.20;;;;;;;19.73;48.14;93697.81;4940794;28;20035;-73
2023/05/29 10:29:54;;;;;;;6.53;3.03;;;;;;;19.84;47.85;93695.22;4935716;28;20042;-72
2023/05/29 10:32:35;;;;;;;4.60;3.08;;;;;;;19.93;46.68;93695.66;4963511;28;20050;-73
2023/05/29 10:35:05;;;;;;;2.95;2.65;;;;;;;19.90;46.91;93691.00;4944153;28;20501;-73
2023/05/29 10:37:40;;;;;;;4.85;3.25;;;;;;;19.68;47.39;93690.84;4930594;28;20036;-73
2023/05/29 10:40:14;;;;;;;5.75;2.50;;;;;;;19.76;49.28;93672.78;4964517;28;20050;-74
2023/05/29 10:42:52;;;;;;;5.50;2.95;;;;;;;19.95;48.46;93691.44;4950819;28;20506;-73
2023/05/29 10:45:35;;;;;;;10.75;3.42;;;;;;;20.11;46.77;93681.13;4946170;28;20063;-73
2023/05/29 10:48:08;;;;;;;4.35;2.75;;;;;;;20.16;45.81;93678.13;4945052;28;20383;-74
2023/05/29 10:50:36;;;;;;;5.15;3.50;;;;;;;20.21;44.75;93682.38;4948486;28;20039;-72
2023/05/29 10:53:02;;;;;;;4.22;3.00;;;;;;;20.01;44.78;93662.16;4952092;28;20042;-73
2023/05/29 10:55:35;;;;;;;3.33;2.88;;;;;;;19.93;45.52;93666.75;4948792;28;20035;-74
2023/05/29 10:58:08;;;;;;;5.00;3.17;;;;;;;19.93;46.68;93668.69;4949138;28;20033;-73
2023/05/29 11:00:33;;;;;;;3.42;3.13;;;;;;;19.93;46.59;93666.75;4946657;28;20054;-73
2023/05/29 11:03:03;;;;;;;5.60;3.30;;;;;;;19.87;47.09;93653.97;4950727;28;20027;-73
2023/05/29 11:05:29;;;;;;;4.72;3.08;;;;;;;20.02;48.18;93666.44;4947290;28;20485;-73
2023/05/29 11:08:00;;;;;;;5.25;3.53;;;;;;;19.81;49.06;93664.34;4949924;28;20118;-73
2023/05/29 11:10:44;;;;;;;3.50;2.60;;;;;;;19.69;49.64;93670.81;4949283;28;20796;-73
2023/05/29 11:13:09;;;;;;;6.93;3.50;;;;;;;19.52;53.34;93660.66;4952610;28;20055;-73
2023/05/29 11:15:37;;;;;;;9.48;4.20;;;;;;;19.70;55.14;93664.25;4946597;28;20322;-73
2023/05/29 11:18:06;;;;;;;7.97;4.28;;;;;;;19.62;54.77;93670.75;4958043;28;20459;-73
2023/05/29 11:20:56;;;;;;;5.43;4.20;;;;;;;19.37;57.84;93669.72;4947540;28;20046;-73
2023/05/29 11:23:25;;;;;;;11.93;4.85;;;;;;;19.37;61.14;93664.34;4949971;28;20094;-74
2023/05/29 11:25:51;;;;;;;6.30;4.13;;;;;;;19.26;61.71;93660.78;4946720;28;20121;-72
2023/05/29 11:28:16;;;;;;;7.53;4.57;;;;;;;19.19;65.67;93652.63;4950278;28;20097;-74
2023/05/29 11:30:47;;;;;;;6.07;3.90;;;;;;;19.52;62.76;93652.56;4948073;28;20055;-72